Time;durP1;ratioP1;P1;durP2;ratioP2;P2;SDS_P1;SDS_P2;PMS_P1;PMS_P2;Temp;Humidity;BMP_temperature;BMP_pressure;BME280_temperature;BME280_humidity;BME280_pressure;Samples;Min_cycle;Max_cycle;Signal;HPM_P1;HPM_P2
2023/03/08 00:00:32;;;;;;;6.32;3.47;;;;;;;;;;5037925;28;20048;-70
2023/03/08 00:03:01;;;;;;;2.63;1.05;;;;;;;;;;5049798;28;20048;-72
2023/03/08 00:05:31;;;;;;;3.55;2.97;;;;;;;;;;5041341;28;20594;-70
2023/03/08 00:07:59;;;;;;;2.47;1.27;;;;;;;;;;5041821;28;20129;-73
2023/03/08 00:10:27;;;;;;;1.45;1.15;;;;;;;;;;5044978;28;20049;-72
2023/03/08 00:12:56;;;;;;;7.07;1.90;;;;;;;;;;5052014;28;20044;-68
2023/03/08 00:15:24;;;;;;;1.98;1.15;;;;;;;;;;5046903;28;20503;-68
2023/03/08 00:17:52;;;;;;;6.35;2.17;;;;;;;;;;5047799;28;20040;-69
2023/03/08 00:20:21;;;;;;;6.03;1.95;;;;;;;;;;5043290;28;20052;-70
2023/03/08 00:22:50;;;;;;;3.78;1.65;;;;;;;;;;5038680;28;20417;-70
2023/03/08 00:25:19;;;;;;;3.15;1.85;;;;;;;;;;5045453;28;20041;-69
2023/03/08 00:27:47;;;;;;;4.03;1.80;;;;;;;;;;5045984;28;20132;-70
2023/03/08 00:30:16;;;;;;;5.78;1.65;;;;;;;;;;5058741;28;20052;-69
2023/03/08 00:32:45;;;;;;;3.38;1.90;;;;;;;;;;5051791;28;20053;-67
2023/03/08 00:35:13;;;;;;;2.92;1.77;;;;;;;;;;5048549;28;20500;-70
2023/03/08 00:37:41;;;;;;;6.35;2.65;;;;;;;;;;5047325;28;20531;-70
2023/03/08 00:40:12;;;;;;;2.10;1.33;;;;;;;;;;5051635;28;20045;-66
2023/03/08 00:42:40;;;;;;;4.22;2.88;;;;;;;;;;5050110;28;20052;-70
2023/03/08 00:45:09;;;;;;;7.32;1.13;;;;;;;;;;5048644;28;20494;-71
2023/03/08 00:47:38;;;;;;;6.47;2.17;;;;;;;;;;5045359;28;20049;-70
2023/03/08 00:50:07;;;;;;;4.28;1.83;;;;;;;;;;5043336;28;20044;-70
2023/03/08 00:52:35;;;;;;;4.28;2.05;;;;;;;;;;5046976;28;20045;-70
2023/03/08 00:55:04;;;;;;;11.35;2.47;;;;;;;;;;5050733;28;20397;-70
2023/03/08 00:57:33;;;;;;;5.80;2.13;;;;;;;;;;5062636;28;20044;-69
2023/03/08 01:00:04;;;;;;;5.75;2.55;;;;;;;;;;5048231;28;20041;-70
2023/03/08 01:02:32;;;;;;;1.85;1.48;;;;;;;;;;5056425;28;20418;-70
2023/03/08 01:05:01;;;;;;;3.17;1.15;;;;;;;;;;5045041;28;20042;-70
2023/03/08 01:07:29;;;;;;;3.83;1.67;;;;;;;;;;5054340;28;20055;-71
2023/03/08 01:09:57;;;;;;;4.18;2.05;;;;;;;;;;5050220;28;20482;-71
2023/03/08 01:12:25;;;;;;;2.38;1.27;;;;;;;;;;5050015;28;20048;-70
2023/03/08 01:14:55;;;;;;;3.45;2.00;;;;;;;;;;5049877;28;20088;-70
2023/03/08 01:17:23;;;;;;;3.50;1.20;;;;;;;;;;5048843;28;20531;-67
2023/03/08 01:19:52;;;;;;;1.65;1.27;;;;;;;;;;5040901;28;20048;-70
2023/03/08 01:22:20;;;;;;;4.95;2.15;;;;;;;;;;5053692;28;20063;-69
2023/03/08 01:24:49;;;;;;;2.95;1.13;;;;;;;;;;5046831;28;20128;-71
2023/03/08 01:27:17;;;;;;;2.45;1.20;;;;;;;;;;5052599;28;20041;-71
2023/03/08 01:29:46;;;;;;;2.67;1.42;;;;;;;;;;5048209;28;20052;-71
2023/03/08 01:32:15;;;;;;;1.38;1.27;;;;;;;;;;5053604;28;20501;-71
2023/03/08 01:34:44;;;;;;;3.00;1.65;;;;;;;;;;5046519;28;20053;-70
2023/03/08 01:37:12;;;;;;;5.07;2.53;;;;;;;;;;5052153;28;20401;-71
2023/03/08 01:39:40;;;;;;;1.27;1.17;;;;;;;;;;5041451;28;20052;-70
2023/03/08 01:42:09;;;;;;;2.10;0.90;;;;;;;;;;5053305;28;20452;-70
2023/03/08 01:44:50;;;;;;;3.15;1.52;;;;;;;;;;5041622;28;20053;-69
2023/03/08 01:47:20;;;;;;;2.20;1.77;;;;;;;;;;5058496;28;20041;-70
2023/03/08 01:49:49;;;;;;;4.10;2.42;;;;;;;;;;5065148;28;20485;-70
2023/03/08 01:52:20;;;;;;;3.95;1.35;;;;;;;;;;5071018;28;20049;-70
2023/03/08 01:54:50;;;;;;;2.83;0.88;;;;;;;;;;5082434;28;20048;-70
2023/03/08 01:57:20;;;;;;;1.25;0.63;;;;;;;;;;5075668;28;20500;-70
2023/03/08 01:59:49;;;;;;;4.88;1.83;;;;;;;;;;5063128;28;20447;-66
2023/03/08 02:02:18;;;;;;;2.22;1.77;;;;;;;;;;5077161;28;20049;-70
2023/03/08 02:04:48;;;;;;;3.22;1.55;;;;;;;;;;5066361;28;20059;-69
2023/03/08 02:07:16;;;;;;;5.22;1.40;;;;;;;;;;5064062;28;20052;-71
2023/03/08 02:09:45;;;;;;;1.50;0.98;;;;;;;;;;5066363;28;20516;-71
2023/03/08 02:12:14;;;;;;;2.15;1.23;;;;;;;;;;5065295;28;20055;-69
2023/03/08 02:14:43;;;;;;;1.75;1.15;;;;;;;;;;5069243;28;20044;-70
2023/03/08 02:17:11;;;;;;;4.63;1.25;;;;;;;;;;5069164;28;20111;-73
2023/03/08 02:19:44;;;;;;;3.20;1.38;;;;;;;;;;5064527;28;20512;-71
2023/03/08 02:22:15;;;;;;;4.68;1.00;;;;;;;;;;5080184;28;20047;-67
2023/03/08 02:24:44;;;;;;;1.30;0.65;;;;;;;;;;5065111;28;20187;-70
2023/03/08 02:27:15;;;;;;;2.10;1.10;;;;;;;;;;5061903;28;20040;-72
2023/03/08 02:32:17;;;;;;;9.55;2.20;;;;;;;;;;5102323;22;20048;-86
2023/03/08 02:34:46;;;;;;;2.78;1.67;;;;;;;;;;5093607;28;20055;-87
2023/03/08 02:37:15;;;;;;;6.53;3.35;;;;;;;;;;5092262;28;20184;-87
2023/03/08 02:42:41;;;;;;;2.10;1.25;;;;;;;;;;5093761;28;20062;-87
2023/03/08 02:45:10;;;;;;;1.25;1.15;;;;;;;;;;5092752;28;20450;-87
2023/03/08 02:47:38;;;;;;;2.63;1.10;;;;;;;;;;5097407;28;20056;-90
2023/03/08 02:50:08;;;;;;;2.35;1.55;;;;;;;;;;5084938;28;20508;-88
2023/03/08 02:52:50;;;;;;;0.93;0.85;;;;;;;;;;5079702;28;20044;-87
2023/03/08 02:55:21;;;;;;;4.32;1.50;;;;;;;;;;5087890;28;20454;-87
2023/03/08 02:58:05;;;;;;;2.38;1.27;;;;;;;;;;5089880;28;20050;-87
2023/03/08 03:00:33;;;;;;;1.23;0.98;;;;;;;;;;5089612;28;20055;-87
2023/03/08 03:03:01;;;;;;;6.70;1.00;;;;;;;;;;5092004;28;20091;-87
2023/03/08 03:05:30;;;;;;;2.40;2.20;;;;;;;;;;5091573;28;20066;-86
2023/03/08 03:07:58;;;;;;;1.27;0.88;;;;;;;;;;5088593;28;20396;-86
2023/03/08 03:10:28;;;;;;;0.80;0.70;;;;;;;;;;5091778;28;20127;-87
2023/03/08 03:13:10;;;;;;;1.92;1.17;;;;;;;;;;5086271;28;20591;-87
2023/03/08 03:15:39;;;;;;;2.85;2.05;;;;;;;;;;5092016;28;20508;-87
2023/03/08 03:18:08;;;;;;;1.73;1.30;;;;;;;;;;5090841;28;20454;-87
2023/03/08 03:20:40;;;;;;;5.82;0.70;;;;;;;;;;5091792;28;20055;-87
2023/03/08 03:23:22;;;;;;;2.38;1.70;;;;;;;;;;5090559;28;20052;-88
2023/03/08 03:25:52;;;;;;;2.67;1.00;;;;;;;;;;5091480;28;20055;-86
2023/03/08 03:28:20;;;;;;;0.55;0.55;;;;;;;;;;5078984;28;20423;-87
2023/03/08 03:30:48;;;;;;;1.23;1.10;;;;;;;;;;5091602;28;20060;-87
2023/03/08 03:33:17;;;;;;;2.63;1.38;;;;;;;;;;5085207;28;20400;-87
2023/03/08 03:35:45;;;;;;;1.88;1.48;;;;;;;;;;5091186;28;20514;-86
2023/03/08 03:38:13;;;;;;;3.20;2.28;;;;;;;;;;5090391;28;20056;-86
2023/03/08 03:40:42;;;;;;;3.42;0.80;;;;;;;;;;5083636;28;20041;-86
2023/03/08 03:43:12;;;;;;;0.60;0.60;;;;;;;;;;5092107;28;20052;-86
2023/03/08 03:45:40;;;;;;;1.83;1.73;;;;;;;;;;5091856;28;20044;-87
2023/03/08 03:48:09;;;;;;;3.78;1.10;;;;;;;;;;5090199;28;20052;-86
2023/03/08 03:50:37;;;;;;;4.70;2.22;;;;;;;;;;5091303;28;20117;-85
2023/03/08 03:53:06;;;;;;;1.20;0.60;;;;;;;;;;5090214;28;20070;-86
2023/03/08 03:55:34;;;;;;;2.25;0.95;;;;;;;;;;5084465;28;20462;-85
2023/03/08 03:58:03;;;;;;;2.67;1.02;;;;;;;;;;5088428;28;20087;-85
2023/03/08 04:00:32;;;;;;;8.05;2.33;;;;;;;;;;5091308;28;20044;-87
2023/03/08 04:03:01;;;;;;;1.50;1.40;;;;;;;;;;5090653;28;20481;-85
2023/03/08 04:05:29;;;;;;;5.57;1.77;;;;;;;;;;5086260;28;20070;-85
2023/03/08 04:07:57;;;;;;;3.92;1.23;;;;;;;;;;5092716;28;20040;-85
2023/03/08 04:10:28;;;;;;;5.35;1.83;;;;;;;;;;5094443;28;20097;-85
2023/03/08 04:12:56;;;;;;;2.88;1.50;;;;;;;;;;5094799;28;20048;-85
2023/03/08 04:15:24;;;;;;;0.60;0.60;;;;;;;;;;5094252;28;20048;-85
2023/03/08 04:17:54;;;;;;;4.03;1.20;;;;;;;;;;5094218;28;20504;-85
2023/03/08 04:20:37;;;;;;;1.15;1.05;;;;;;;;;;5085493;28;20060;-86
2023/03/08 04:23:05;;;;;;;1.05;0.98;;;;;;;;;;5094041;28;20048;-85
2023/03/08 04:25:33;;;;;;;1.13;1.00;;;;;;;;;;5091765;28;20483;-85
2023/03/08 04:28:16;;;;;;;1.23;0.93;;;;;;;;;;5097101;28;20453;-85
2023/03/08 04:30:44;;;;;;;2.78;2.08;;;;;;;;;;5114940;28;20130;-86
2023/03/08 04:36:11;;;;;;;2.55;1.42;;;;;;;;;;5106955;28;20074;-85
2023/03/08 04:38:39;;;;;;;1.48;0.88;;;;;;;;;;5113733;28;20340;-86
2023/03/08 04:41:10;;;;;;;0.95;0.88;;;;;;;;;;5112289;28;20047;-88
2023/03/08 04:44:08;;;;;;;10.05;1.38;;;;;;;;;;5114855;28;20389;-86
2023/03/08 04:46:51;;;;;;;1.60;1.50;;;;;;;;;;5101180;28;20036;-85
2023/03/08 04:52:31;;;;;;;3.13;1.50;;;;;;;;;;5101291;28;20119;-86
2023/03/08 04:55:02;;;;;;;6.28;1.58;;;;;;;;;;5114909;28;20109;-86
2023/03/08 04:57:54;;;;;;;0.45;0.45;;;;;;;;;;5107204;28;20059;-86
2023/03/08 05:00:37;;;;;;;4.65;1.50;;;;;;;;;;5101240;28;20064;-85
2023/03/08 05:03:10;;;;;;;3.33;1.98;;;;;;;;;;5113976;28;20044;-86
2023/03/08 05:05:46;;;;;;;2.55;1.33;;;;;;;;;;5114331;28;20107;-85
2023/03/08 05:08:30;;;;;;;4.93;1.75;;;;;;;;;;5035603;28;20052;-86
2023/03/08 05:11:20;;;;;;;6.68;1.50;;;;;;;;;;5059881;28;20059;-87
2023/03/08 05:13:53;;;;;;;1.50;1.27;;;;;;;;;;5049750;28;20048;-86
2023/03/08 05:16:36;;;;;;;7.03;2.00;;;;;;;;;;5059404;28;20464;-85
2023/03/08 05:19:04;;;;;;;1.27;1.17;;;;;;;;;;5075516;28;20052;-86
2023/03/08 05:21:37;;;;;;;3.17;2.10;;;;;;;;;;5078026;28;20055;-86
2023/03/08 05:24:09;;;;;;;2.47;1.33;;;;;;;;;;5069403;28;20114;-87
2023/03/08 05:26:37;;;;;;;2.40;1.10;;;;;;;;;;5061898;28;20206;-85
2023/03/08 05:29:06;;;;;;;2.17;1.98;;;;;;;;;;5055125;28;20075;-87
2023/03/08 05:34:17;;;;;;;8.15;1.67;;;;;;;;;;5106443;28;20514;-85
2023/03/08 05:36:49;;;;;;;7.07;2.20;;;;;;;;;;5106783;28;20492;-86
2023/03/08 05:42:40;;;;;;;4.63;1.00;;;;;;;;;;5107532;28;20043;-87
2023/03/08 05:45:42;;;;;;;2.95;1.80;;;;;;;;;;5099457;28;20052;-85
2023/03/08 05:48:11;;;;;;;1.30;0.90;;;;;;;;;;5106388;28;20055;-86
2023/03/08 05:50:39;;;;;;;4.10;1.95;;;;;;;;;;5113656;28;20076;-85
2023/03/08 05:53:23;;;;;;;1.38;0.70;;;;;;;;;;5100634;28;20412;-85
2023/03/08 05:55:54;;;;;;;2.67;2.47;;;;;;;;;;5101971;27;20054;-86
2023/03/08 05:58:27;;;;;;;3.53;1.83;;;;;;;;;;5099699;28;20507;-86
2023/03/08 06:00:56;;;;;;;2.35;1.70;;;;;;;;;;5113966;28;20062;-88
2023/03/08 06:03:25;;;;;;;2.50;1.58;;;;;;;;;;5102584;28;20126;-88
2023/03/08 06:05:53;;;;;;;6.05;1.52;;;;;;;;;;5105183;28;20126;-89
2023/03/08 06:08:31;;;;;;;1.77;1.35;;;;;;;;;;5103850;28;20054;-88
2023/03/08 06:11:07;;;;;;;1.25;1.02;;;;;;;;;;5113410;28;20115;-87
2023/03/08 06:13:36;;;;;;;1.80;1.17;;;;;;;;;;5114462;28;20055;-87
2023/03/08 06:16:06;;;;;;;1.63;1.33;;;;;;;;;;5100781;28;20044;-87
2023/03/08 06:18:43;;;;;;;2.00;1.25;;;;;;;;;;5105051;28;20044;-88
2023/03/08 06:21:15;;;;;;;6.45;1.98;;;;;;;;;;5100581;28;20098;-88
2023/03/08 06:23:45;;;;;;;6.65;1.88;;;;;;;;;;5112330;28;20074;-85
2023/03/08 06:26:13;;;;;;;9.73;1.92;;;;;;;;;;5102660;28;20047;-87
2023/03/08 06:28:42;;;;;;;4.55;2.50;;;;;;;;;;5104308;28;20052;-87
2023/03/08 06:31:12;;;;;;;4.05;2.45;;;;;;;;;;5109056;27;20051;-88
2023/03/08 06:33:41;;;;;;;6.97;3.03;;;;;;;;;;5113538;28;20043;-87
2023/03/08 06:36:11;;;;;;;3.47;2.38;;;;;;;;;;5115064;28;20043;-90
2023/03/08 06:38:40;;;;;;;9.35;1.73;;;;;;;;;;5119124;28;20043;-89
2023/03/08 06:41:10;;;;;;;3.20;0.98;;;;;;;;;;5123399;28;20107;-88
2023/03/08 06:43:39;;;;;;;6.95;2.55;;;;;;;;;;5121837;28;20136;-88
2023/03/08 06:46:08;;;;;;;11.68;3.10;;;;;;;;;;5121916;28;20107;-88
2023/03/08 06:48:37;;;;;;;1.98;1.35;;;;;;;;;;5113856;28;20039;-88
2023/03/08 06:51:06;;;;;;;3.17;1.70;;;;;;;;;;5112687;28;20154;-88
2023/03/08 06:53:36;;;;;;;6.50;1.77;;;;;;;;;;5112467;28;20385;-88
2023/03/08 06:56:06;;;;;;;6.50;2.15;;;;;;;;;;5112143;28;20133;-88
2023/03/08 06:58:36;;;;;;;8.02;3.08;;;;;;;;;;5111519;28;20138;-88
2023/03/08 07:01:05;;;;;;;3.28;1.70;;;;;;;;;;5102602;28;20074;-87
2023/03/08 07:03:34;;;;;;;3.85;1.73;;;;;;;;;;5109061;28;20060;-88
2023/03/08 07:06:03;;;;;;;3.75;2.35;;;;;;;;;;5112163;28;20048;-88
2023/03/08 07:08:32;;;;;;;10.60;2.53;;;;;;;;;;5111202;28;20065;-88
2023/03/08 07:11:00;;;;;;;4.35;1.52;;;;;;;;;;5111592;28;20043;-88
2023/03/08 07:13:29;;;;;;;4.13;1.80;;;;;;;;;;5098448;28;20138;-88
2023/03/08 07:15:59;;;;;;;2.22;1.25;;;;;;;;;;5112221;28;20055;-88
2023/03/08 07:18:27;;;;;;;3.42;2.33;;;;;;;;;;5110861;28;20055;-88
2023/03/08 07:20:56;;;;;;;3.05;1.58;;;;;;;;;;5111166;28;20651;-88
2023/03/08 07:23:25;;;;;;;5.43;2.55;;;;;;;;;;5111610;28;20048;-88
2023/03/08 07:25:54;;;;;;;5.43;2.13;;;;;;;;;;5111330;28;20062;-88
2023/03/08 07:28:22;;;;;;;6.25;2.30;;;;;;;;;;5110513;27;20492;-89
2023/03/08 07:30:51;;;;;;;4.22;2.13;;;;;;;;;;5111279;28;20077;-88
2023/03/08 07:33:21;;;;;;;2.83;1.38;;;;;;;;;;5110015;28;20461;-88
2023/03/08 07:35:50;;;;;;;4.53;2.55;;;;;;;;;;5108191;28;20575;-88
2023/03/08 07:38:19;;;;;;;8.50;2.63;;;;;;;;;;5109561;28;20424;-88
2023/03/08 07:40:54;;;;;;;3.67;1.98;;;;;;;;;;5101223;28;20051;-88
2023/03/08 07:43:22;;;;;;;;;;;;;;;;;;5111494;28;20122;-88
2023/03/08 07:45:50;;;;;;;5.45;2.10;;;;;;;;;;5105629;28;20477;-88
2023/03/08 07:48:19;;;;;;;7.47;3.03;;;;;;;;;;5103250;28;20047;-86
2023/03/08 07:50:49;;;;;;;3.83;1.65;;;;;;;;;;5110413;28;20074;-88
2023/03/08 07:53:17;;;;;;;2.58;1.85;;;;;;;;;;5106783;28;20468;-87
2023/03/08 07:55:46;;;;;;;6.38;1.63;;;;;;;;;;5109229;28;20135;-86
2023/03/08 07:58:14;;;;;;;3.92;1.73;;;;;;;;;;5108526;28;20102;-89
2023/03/08 08:00:42;;;;;;;3.08;1.15;;;;;;;;;;5110992;28;20138;-88
2023/03/08 08:03:11;;;;;;;6.93;2.28;;;;;;;;;;5109115;28;20052;-87
2023/03/08 08:05:39;;;;;;;6.30;2.35;;;;;;;;;;5104303;28;20454;-87
2023/03/08 08:08:12;;;;;;;4.85;2.35;;;;;;;;;;5100330;28;20488;-87
2023/03/08 08:10:40;;;;;;;4.80;2.33;;;;;;;;;;5100117;28;20131;-88
2023/03/08 08:13:09;;;;;;;3.92;2.75;;;;;;;;;;5099475;28;20055;-87
2023/03/08 08:15:38;;;;;;;14.88;2.05;;;;;;;;;;5103072;28;20090;-87
2023/03/08 08:18:06;;;;;;;3.97;2.42;;;;;;;;;;5110384;28;20048;-87
2023/03/08 08:20:35;;;;;;;11.55;3.08;;;;;;;;;;5111038;28;20131;-87
2023/03/08 08:23:05;;;;;;;5.65;2.47;;;;;;;;;;5108478;28;20244;-87
2023/03/08 08:25:35;;;;;;;10.35;3.53;;;;;;;;;;5111062;28;20075;-87
2023/03/08 08:28:03;;;;;;;4.90;2.42;;;;;;;;;;5110214;28;20048;-87
2023/03/08 08:30:32;;;;;;;4.82;1.73;;;;;;;;;;5110471;28;20069;-87
2023/03/08 08:33:02;;;;;;;2.58;2.17;;;;;;;;;;5106531;28;20054;-87
2023/03/08 08:35:30;;;;;;;5.80;2.72;;;;;;;;;;5110555;28;20126;-87
2023/03/08 08:38:10;;;;;;;1.75;1.60;;;;;;;;;;5109233;28;20075;-87
2023/03/08 08:40:40;;;;;;;4.28;2.38;;;;;;;;;;5110935;28;20496;-88
2023/03/08 08:43:09;;;;;;;4.75;1.65;;;;;;;;;;5103161;28;20084;-87
2023/03/08 08:45:37;;;;;;;4.13;1.90;;;;;;;;;;5101031;28;20473;-87
2023/03/08 08:48:06;;;;;;;5.35;2.05;;;;;;;;;;5110414;28;20051;-87
2023/03/08 08:50:34;;;;;;;6.50;2.88;;;;;;;;;;5107468;28;20044;-88
2023/03/08 08:53:03;;;;;;;10.05;2.90;;;;;;;;;;5113072;28;20156;-88
2023/03/08 08:55:32;;;;;;;15.30;2.05;;;;;;;;;;5114315;28;20461;-86
2023/03/08 08:58:02;;;;;;;8.90;2.60;;;;;;;;;;5113806;28;20079;-88
2023/03/08 09:00:32;;;;;;;6.85;2.58;;;;;;;;;;5114374;28;20535;-87
2023/03/08 09:03:00;;;;;;;3.97;2.38;;;;;;;;;;5114660;28;20445;-88
2023/03/08 09:05:29;;;;;;;7.88;2.45;;;;;;;;;;5113784;27;20384;-88
2023/03/08 09:07:58;;;;;;;5.57;2.78;;;;;;;;;;5110666;28;20471;-87
2023/03/08 09:10:27;;;;;;;2.35;1.33;;;;;;;;;;5114327;28;20058;-87
2023/03/08 09:12:55;;;;;;;3.47;1.70;;;;;;;;;;5114343;28;20075;-87
2023/03/08 09:15:27;;;;;;;5.80;2.17;;;;;;;;;;5114296;28;20060;-88
2023/03/08 09:17:55;;;;;;;7.55;2.72;;;;;;;;;;5113585;27;20050;-89
2023/03/08 09:20:24;;;;;;;2.55;1.48;;;;;;;;;;5105796;28;20043;-87
2023/03/08 09:22:52;;;;;;;4.68;2.20;;;;;;;;;;5115826;28;20502;-88
2023/03/08 09:25:23;;;;;;;1.08;1.02;;;;;;;;;;5102055;28;20064;-86
2023/03/08 09:27:51;;;;;;;4.30;1.30;;;;;;;;;;5114220;28;20067;-86
2023/03/08 09:30:20;;;;;;;7.10;2.22;;;;;;;;;;5112065;28;20058;-86
2023/03/08 09:32:50;;;;;;;4.60;2.78;;;;;;;;;;5099399;28;20055;-89
2023/03/08 09:35:19;;;;;;;6.53;1.90;;;;;;;;;;5111815;28;20066;-86
2023/03/08 09:37:47;;;;;;;9.43;2.30;;;;;;;;;;5107363;28;20055;-87
2023/03/08 09:40:19;;;;;;;8.77;3.60;;;;;;;;;;5102206;28;20078;-87
2023/03/08 09:42:48;;;;;;;7.10;1.92;;;;;;;;;;5113424;28;20518;-86
2023/03/08 09:45:19;;;;;;;8.82;2.38;;;;;;;;;;5112614;28;20047;-85
2023/03/08 09:47:48;;;;;;;6.68;3.10;;;;;;;;;;5103664;28;20557;-88
2023/03/08 09:50:26;;;;;;;4.22;1.67;;;;;;;;;;5120359;28;20116;-85
2023/03/08 09:52:58;;;;;;;5.82;2.47;;;;;;;;;;5119886;28;20487;-86
2023/03/08 09:55:29;;;;;;;5.60;2.63;;;;;;;;;;5117564;28;20055;-85
2023/03/08 09:58:00;;;;;;;6.35;3.30;;;;;;;;;;5108832;28;20416;-86
2023/03/08 10:00:30;;;;;;;6.10;1.90;;;;;;;;;;5113739;28;20071;-86
2023/03/08 10:03:08;;;;;;;7.75;2.67;;;;;;;;;;5108833;28;20128;-86
2023/03/08 10:05:41;;;;;;;8.45;3.35;;;;;;;;;;5106728;28;20047;-87
2023/03/08 10:08:12;;;;;;;2.88;1.88;;;;;;;;;;5099749;28;20083;-87
2023/03/08 10:10:46;;;;;;;9.68;2.33;;;;;;;;;;5113393;28;20048;-87
2023/03/08 10:13:38;;;;;;;6.68;2.60;;;;;;;;;;5112578;28;20138;-87
2023/03/08 10:16:12;;;;;;;9.60;2.50;;;;;;;;;;5094870;28;20416;-86
2023/03/08 10:18:43;;;;;;;6.63;2.47;;;;;;;;;;5112203;28;20440;-87
2023/03/08 10:21:16;;;;;;;5.15;2.10;;;;;;;;;;5112655;28;20044;-87
2023/03/08 10:23:46;;;;;;;5.65;2.55;;;;;;;;;;5112057;28;20090;-87
2023/03/08 10:26:16;;;;;;;9.25;2.47;;;;;;;;;;5110083;27;20096;-87
2023/03/08 10:28:45;;;;;;;8.98;3.60;;;;;;;;;;5112460;28;20054;-86
2023/03/08 10:31:20;;;;;;;3.45;1.45;;;;;;;;;;5097988;28;20051;-87
2023/03/08 10:33:49;;;;;;;19.15;4.20;;;;;;;;;;5107483;28;20130;-87
2023/03/08 10:36:20;;;;;;;8.07;3.47;;;;;;;;;;5111570;28;20507;-87
2023/03/08 10:39:05;;;;;;;7.57;2.67;;;;;;;;;;5112552;28;20086;-87
2023/03/08 10:41:38;;;;;;;7.53;2.15;;;;;;;;;;5112548;28;20066;-87
2023/03/08 10:44:07;;;;;;;8.20;3.38;;;;;;;;;;5112510;28;20127;-87
2023/03/08 10:46:46;;;;;;;3.35;2.30;;;;;;;;;;5111608;28;20069;-87
2023/03/08 10:49:16;;;;;;;7.25;2.65;;;;;;;;;;5112116;28;20067;-87
2023/03/08 10:51:57;;;;;;;5.22;1.90;;;;;;;;;;5106791;28;20094;-87
2023/03/08 10:54:26;;;;;;;6.07;2.42;;;;;;;;;;5112321;28;20475;-87
2023/03/08 10:56:57;;;;;;;6.55;2.33;;;;;;;;;;5104983;28;20055;-87
2023/03/08 10:59:31;;;;;;;8.73;2.78;;;;;;;;;;5109995;28;20126;-87
2023/03/08 11:02:01;;;;;;;12.75;3.08;;;;;;;;;;5111972;28;20048;-87
2023/03/08 11:04:30;;;;;;;3.03;1.27;;;;;;;;;;5104856;28;20047;-88
2023/03/08 11:07:10;;;;;;;6.15;2.17;;;;;;;;;;5102430;28;20044;-89
2023/03/08 11:09:38;;;;;;;2.53;1.33;;;;;;;;;;5111639;28;20051;-88
2023/03/08 11:12:21;;;;;;;3.00;1.63;;;;;;;;;;5111680;28;20054;-88
2023/03/08 11:14:49;;;;;;;6.55;1.67;;;;;;;;;;5111068;28;20114;-89
2023/03/08 11:17:19;;;;;;;1.02;0.80;;;;;;;;;;5106403;28;20077;-88
2023/03/08 11:20:09;;;;;;;2.80;1.67;;;;;;;;;;5103551;28;20059;-88
2023/03/08 11:22:59;;;;;;;12.07;1.90;;;;;;;;;;5095520;28;20048;-88
2023/03/08 11:25:35;;;;;;;1.52;1.35;;;;;;;;;;5108470;28;20085;-88
2023/03/08 11:28:27;;;;;;;6.97;2.63;;;;;;;;;;5111232;28;20100;-88
2023/03/08 11:31:00;;;;;;;4.63;1.90;;;;;;;;;;5088790;28;20162;-88
2023/03/08 11:33:35;;;;;;;1.85;1.52;;;;;;;;;;5103561;28;20135;-89
2023/03/08 11:36:06;;;;;;;3.40;1.75;;;;;;;;;;5111622;28;20052;-88
2023/03/08 11:38:36;;;;;;;3.88;1.77;;;;;;;;;;5108378;28;20090;-88
2023/03/08 11:41:13;;;;;;;3.83;1.02;;;;;;;;;;5111575;28;20051;-89
2023/03/08 11:43:48;;;;;;;2.55;1.17;;;;;;;;;;5111105;28;20567;-89
2023/03/08 11:46:19;;;;;;;2.80;1.27;;;;;;;;;;5099821;28;20130;-88
2023/03/08 11:48:53;;;;;;;2.90;1.33;;;;;;;;;;5107678;28;20428;-89
2023/03/08 11:51:25;;;;;;;4.40;1.75;;;;;;;;;;5108097;28;20591;-89
2023/03/08 11:54:02;;;;;;;2.03;1.30;;;;;;;;;;5111185;28;20428;-89
2023/03/08 11:56:39;;;;;;;2.00;1.35;;;;;;;;;;5110745;28;20488;-88
2023/03/08 11:59:11;;;;;;;1.58;0.88;;;;;;;;;;5110655;28;20063;-89
2023/03/08 12:01:42;;;;;;;10.75;2.03;;;;;;;;;;5110533;28;20052;-88
2023/03/08 12:04:12;;;;;;;1.55;0.93;;;;;;;;;;5110246;28;20126;-87
2023/03/08 12:06:42;;;;;;;3.80;1.65;;;;;;;;;;5108044;28;20054;-89
2023/03/08 12:09:15;;;;;;;2.40;1.10;;;;;;;;;;5111039;28;20047;-87
2023/03/08 12:11:47;;;;;;;3.53;1.40;;;;;;;;;;5110556;28;20047;-88
2023/03/08 12:14:19;;;;;;;1.52;1.33;;;;;;;;;;5109508;28;20112;-88
2023/03/08 12:16:49;;;;;;;2.40;1.80;;;;;;;;;;5094269;28;20058;-88
2023/03/08 12:19:25;;;;;;;2.95;1.75;;;;;;;;;;5109807;28;20050;-88
2023/03/08 12:21:58;;;;;;;4.72;1.92;;;;;;;;;;5111037;28;20056;-89
2023/03/08 12:24:34;;;;;;;2.97;1.55;;;;;;;;;;5110705;28;20097;-89
2023/03/08 12:27:06;;;;;;;2.20;0.98;;;;;;;;;;5100473;28;20044;-89
2023/03/08 12:29:38;;;;;;;3.35;1.25;;;;;;;;;;5115115;28;20124;-88
2023/03/08 12:32:07;;;;;;;5.68;2.15;;;;;;;;;;5114633;28;20043;-88
2023/03/08 12:34:39;;;;;;;4.65;1.65;;;;;;;;;;5108274;28;20055;-89
2023/03/08 12:37:19;;;;;;;8.75;1.92;;;;;;;;;;5113659;27;20176;-88
2023/03/08 12:39:56;;;;;;;4.18;1.05;;;;;;;;;;5116570;28;20134;-87
2023/03/08 12:42:34;;;;;;;5.00;1.98;;;;;;;;;;5117360;28;20071;-88
2023/03/08 12:45:10;;;;;;;0.73;0.65;;;;;;;;;;5116349;28;20075;-86
2023/03/08 12:47:39;;;;;;;3.20;1.35;;;;;;;;;;5110924;28;20102;-87
2023/03/08 12:50:09;;;;;;;6.35;1.67;;;;;;;;;;5122405;28;20123;-88
2023/03/08 12:52:38;;;;;;;1.17;0.73;;;;;;;;;;5122500;28;20075;-88
2023/03/08 12:55:10;;;;;;;0.80;0.80;;;;;;;;;;5122705;28;20051;-88
2023/03/08 12:57:45;;;;;;;1.60;1.50;;;;;;;;;;5104567;28;20094;-88
2023/03/08 13:00:25;;;;;;;2.40;1.15;;;;;;;;;;5113966;28;20073;-88
2023/03/08 13:03:01;;;;;;;1.58;1.00;;;;;;;;;;5113135;28;20043;-88
2023/03/08 13:05:31;;;;;;;1.05;0.70;;;;;;;;;;5112860;28;20044;-87
2023/03/08 13:08:03;;;;;;;1.85;1.10;;;;;;;;;;5101303;28;20440;-90
2023/03/08 13:10:33;;;;;;;1.52;1.05;;;;;;;;;;5108873;28;20052;-87
2023/03/08 13:13:15;;;;;;;8.70;0.85;;;;;;;;;;5111753;28;20074;-87
2023/03/08 13:16:08;;;;;;;2.00;0.82;;;;;;;;;;5103519;28;20419;-87
2023/03/08 13:18:37;;;;;;;1.42;1.02;;;;;;;;;;5096016;28;20048;-88
2023/03/08 13:21:15;;;;;;;1.45;0.85;;;;;;;;;;5110508;28;20043;-88
2023/03/08 13:23:47;;;;;;;2.85;0.65;;;;;;;;;;5109826;28;20059;-86
2023/03/08 13:26:22;;;;;;;0.63;0.50;;;;;;;;;;5109397;28;20052;-88
2023/03/08 13:28:52;;;;;;;0.70;0.57;;;;;;;;;;5112519;28;20047;-88
2023/03/08 13:31:21;;;;;;;1.85;1.55;;;;;;;;;;5107708;28;20446;-88
2023/03/08 13:33:51;;;;;;;0.57;0.57;;;;;;;;;;5108139;28;20048;-87
2023/03/08 13:36:21;;;;;;;0.93;0.40;;;;;;;;;;5105775;28;20054;-88
2023/03/08 13:39:00;;;;;;;0.10;0.10;;;;;;;;;;5110368;28;20447;-90
2023/03/08 13:41:35;;;;;;;1.75;0.15;;;;;;;;;;5103051;28;20047;-91
2023/03/08 13:44:07;;;;;;;0.43;0.25;;;;;;;;;;5100173;28;20519;-90
2023/03/08 13:46:36;;;;;;;0.80;0.20;;;;;;;;;;5106852;28;20070;-86
2023/03/08 13:49:04;;;;;;;0.10;0.10;;;;;;;;;;5111818;28;20052;-88
2023/03/08 13:51:33;;;;;;;0.17;0.17;;;;;;;;;;5112921;28;20046;-88
2023/03/08 13:54:01;;;;;;;0.95;0.30;;;;;;;;;;5113823;28;20094;-86
2023/03/08 13:56:30;;;;;;;0.17;0.17;;;;;;;;;;5103488;28;20055;-89
2023/03/08 13:58:59;;;;;;;0.17;0.17;;;;;;;;;;5112429;28;20043;-86
2023/03/08 14:01:29;;;;;;;0.10;0.10;;;;;;;;;;5105143;28;20055;-87
2023/03/08 14:04:00;;;;;;;0.13;0.13;;;;;;;;;;5113862;28;20052;-87
2023/03/08 14:06:32;;;;;;;11.30;0.60;;;;;;;;;;5109776;28;20079;-88
2023/03/08 14:09:02;;;;;;;0.47;0.45;;;;;;;;;;5113383;28;20496;-87
2023/03/08 14:11:32;;;;;;;0.75;0.20;;;;;;;;;;5116251;28;20048;-91
2023/03/08 14:14:03;;;;;;;0.10;0.10;;;;;;;;;;5114606;28;20549;-90
2023/03/08 14:16:34;;;;;;;0.80;0.15;;;;;;;;;;5112622;28;20113;-91
2023/03/08 14:19:09;;;;;;;0.22;0.22;;;;;;;;;;5113290;28;20044;-91
2023/03/08 14:21:38;;;;;;;6.85;0.50;;;;;;;;;;5113586;28;20047;-89
2023/03/08 14:24:09;;;;;;;4.03;0.47;;;;;;;;;;5110971;28;20079;-93
2023/03/08 14:26:39;;;;;;;0.30;0.30;;;;;;;;;;5109660;28;20047;-93
2023/03/08 14:29:17;;;;;;;0.60;0.43;;;;;;;;;;5110067;28;20533;-88
2023/03/08 14:31:54;;;;;;;0.20;0.20;;;;;;;;;;5104711;28;20147;-89
2023/03/08 14:34:24;;;;;;;0.10;0.10;;;;;;;;;;5105650;28;20504;-90
2023/03/08 14:36:55;;;;;;;1.20;0.60;;;;;;;;;;5104223;28;20048;-89
2023/03/08 14:39:24;;;;;;;0.10;0.10;;;;;;;;;;5105027;28;20054;-89
2023/03/08 14:41:53;;;;;;;0.30;0.17;;;;;;;;;;5105883;28;20078;-87
2023/03/08 14:44:23;;;;;;;0.65;0.40;;;;;;;;;;5112120;28;20075;-95
2023/03/08 14:46:57;;;;;;;0.20;0.20;;;;;;;;;;5102423;28;20107;-88
2023/03/08 14:49:28;;;;;;;0.57;0.57;;;;;;;;;;5106669;28;20082;-92
2023/03/08 14:51:57;;;;;;;0.82;0.17;;;;;;;;;;5105440;28;20101;-87
2023/03/08 14:54:36;;;;;;;0.93;0.20;;;;;;;;;;5112805;28;20040;-89
2023/03/08 14:57:16;;;;;;;0.65;0.40;;;;;;;;;;5111581;28;20069;-88
2023/03/08 14:59:45;;;;;;;0.10;0.10;;;;;;;;;;5102741;28;20052;-90
2023/03/08 15:02:15;;;;;;;1.17;0.10;;;;;;;;;;5108927;28;20349;-90
2023/03/08 15:04:46;;;;;;;0.30;0.30;;;;;;;;;;5104721;28;20484;-89
2023/03/08 15:07:19;;;;;;;0.20;0.20;;;;;;;;;;5104484;28;20048;-89
2023/03/08 15:09:48;;;;;;;0.40;0.40;;;;;;;;;;5106769;28;20056;-92
2023/03/08 15:12:16;;;;;;;0.20;0.20;;;;;;;;;;5110965;28;20460;-91
2023/03/08 15:14:45;;;;;;;0.20;0.13;;;;;;;;;;5111848;28;20058;-89
2023/03/08 15:17:14;;;;;;;0.63;0.30;;;;;;;;;;5112351;28;20044;-90
2023/03/08 15:19:42;;;;;;;0.10;0.10;;;;;;;;;;5099461;28;20079;-89
2023/03/08 15:22:14;;;;;;;2.20;0.45;;;;;;;;;;5110345;28;20050;-91
2023/03/08 15:24:42;;;;;;;5.18;0.30;;;;;;;;;;5102190;28;20044;-89